sensor_id;sensor_type;location;lat;lon;timestamp;P1;durP1;ratioP1;P2;durP2;ratioP2
58621;SDS011;44389;51.578;5.456;2023-06-24T00:01:24;21.50;;;18.90;;
58621;SDS011;44389;51.578;5.456;2023-06-24T00:03:50;20.73;;;17.05;;
58621;SDS011;44389;51.578;5.456;2023-06-24T00:06:21;22.58;;;18.13;;
58621;SDS011;44389;51.578;5.456;2023-06-24T00:08:48;21.27;;;17.65;;
58621;SDS011;44389;51.578;5.456;2023-06-24T00:11:14;19.30;;;16.60;;
58621;SDS011;44389;51.578;5.456;2023-06-24T00:13:40;20.60;;;17.13;;
58621;SDS011;44389;51.578;5.456;2023-06-24T00:16:06;18.88;;;16.88;;
58621;SDS011;44389;51.578;5.456;2023-06-24T00:18:32;22.67;;;18.50;;
58621;SDS011;44389;51.578;5.456;2023-06-24T00:20:58;23.50;;;17.70;;
58621;SDS011;44389;51.578;5.456;2023-06-24T00:23:24;20.52;;;18.33;;
58621;SDS011;44389;51.578;5.456;2023-06-24T00:25:50;19.95;;;17.85;;
58621;SDS011;44389;51.578;5.456;2023-06-24T00:28:19;19.95;;;17.63;;
58621;SDS011;44389;51.578;5.456;2023-06-24T00:30:44;22.35;;;18.67;;
58621;SDS011;44389;51.578;5.456;2023-06-24T00:33:10;22.80;;;18.15;;
58621;SDS011;44389;51.578;5.456;2023-06-24T00:35:38;24.00;;;18.42;;
58621;SDS011;44389;51.578;5.456;2023-06-24T00:38:03;19.95;;;17.77;;
58621;SDS011;44389;51.578;5.456;2023-06-24T00:40:29;24.17;;;19.20;;
58621;SDS011;44389;51.578;5.456;2023-06-24T00:42:54;20.00;;;17.90;;
58621;SDS011;44389;51.578;5.456;2023-06-24T00:45:21;22.45;;;19.25;;
58621;SDS011;44389;51.578;5.456;2023-06-24T00:47:47;19.85;;;17.60;;
58621;SDS011;44389;51.578;5.456;2023-06-24T00:50:13;22.65;;;19.20;;
58621;SDS011;44389;51.578;5.456;2023-06-24T00:52:39;25.30;;;22.43;;
58621;SDS011;44389;51.578;5.456;2023-06-24T00:55:07;24.42;;;20.42;;
58621;SDS011;44389;51.578;5.456;2023-06-24T00:57:40;20.98;;;18.55;;
58621;SDS011;44389;51.578;5.456;2023-06-24T01:00:09;21.88;;;18.10;;
58621;SDS011;44389;51.578;5.456;2023-06-24T01:02:39;22.38;;;19.10;;
58621;SDS011;44389;51.578;5.456;2023-06-24T01:05:07;27.05;;;19.20;;
58621;SDS011;44389;51.578;5.456;2023-06-24T01:07:37;21.58;;;18.33;;
58621;SDS011;44389;51.578;5.456;2023-06-24T01:10:03;24.30;;;18.75;;
58621;SDS011;44389;51.578;5.456;2023-06-24T01:12:36;25.27;;;17.20;;
58621;SDS011;44389;51.578;5.456;2023-06-24T01:15:09;21.73;;;18.00;;
58621;SDS011;44389;51.578;5.456;2023-06-24T01:17:37;18.75;;;15.63;;
58621;SDS011;44389;51.578;5.456;2023-06-24T01:20:18;20.40;;;15.52;;
58621;SDS011;44389;51.578;5.456;2023-06-24T01:37:17;19.77;;;16.70;;
58621;SDS011;44389;51.578;5.456;2023-06-24T01:39:49;19.85;;;16.38;;
58621;SDS011;44389;51.578;5.456;2023-06-24T01:42:21;18.63;;;16.30;;
58621;SDS011;44389;51.578;5.456;2023-06-24T01:44:47;19.42;;;17.20;;
58621;SDS011;44389;51.578;5.456;2023-06-24T01:47:14;20.75;;;17.05;;
58621;SDS011;44389;51.578;5.456;2023-06-24T01:49:43;20.55;;;17.20;;
58621;SDS011;44389;51.578;5.456;2023-06-24T01:52:10;19.65;;;15.77;;
58621;SDS011;44389;51.578;5.456;2023-06-24T01:54:37;18.67;;;16.23;;
58621;SDS011;44389;51.578;5.456;2023-06-24T01:57:05;19.90;;;15.40;;
58621;SDS011;44389;51.578;5.456;2023-06-24T01:59:31;16.60;;;14.55;;
58621;SDS011;44389;51.578;5.456;2023-06-24T02:01:58;18.10;;;15.32;;
58621;SDS011;44389;51.578;5.456;2023-06-24T02:04:26;17.98;;;14.93;;
58621;SDS011;44389;51.578;5.456;2023-06-24T02:06:56;20.30;;;14.48;;
58621;SDS011;44389;51.578;5.456;2023-06-24T02:09:26;19.08;;;14.60;;
58621;SDS011;44389;51.578;5.456;2023-06-24T02:11:53;21.17;;;18.30;;
58621;SDS011;44389;51.578;5.456;2023-06-24T02:14:21;24.98;;;18.98;;
58621;SDS011;44389;51.578;5.456;2023-06-24T02:16:47;27.08;;;21.40;;
58621;SDS011;44389;51.578;5.456;2023-06-24T02:19:14;23.10;;;18.17;;
58621;SDS011;44389;51.578;5.456;2023-06-24T02:21:42;20.05;;;16.75;;
58621;SDS011;44389;51.578;5.456;2023-06-24T02:24:09;17.83;;;15.07;;
58621;SDS011;44389;51.578;5.456;2023-06-24T02:26:36;17.05;;;14.82;;
58621;SDS011;44389;51.578;5.456;2023-06-24T02:29:05;17.40;;;15.00;;
58621;SDS011;44389;51.578;5.456;2023-06-24T02:31:33;16.67;;;14.40;;
58621;SDS011;44389;51.578;5.456;2023-06-24T02:33:59;20.00;;;15.02;;
58621;SDS011;44389;51.578;5.456;2023-06-24T02:36:24;18.00;;;15.35;;
58621;SDS011;44389;51.578;5.456;2023-06-24T02:38:49;18.45;;;15.18;;
58621;SDS011;44389;51.578;5.456;2023-06-24T02:41:15;19.05;;;14.70;;
58621;SDS011;44389;51.578;5.456;2023-06-24T02:43:40;18.63;;;14.07;;
58621;SDS011;44389;51.578;5.456;2023-06-24T02:46:05;16.42;;;13.80;;
58621;SDS011;44389;51.578;5.456;2023-06-24T02:48:33;18.48;;;14.98;;
58621;SDS011;44389;51.578;5.456;2023-06-24T02:51:02;17.33;;;13.82;;
58621;SDS011;44389;51.578;5.456;2023-06-24T02:53:28;16.03;;;13.80;;
58621;SDS011;44389;51.578;5.456;2023-06-24T02:55:55;17.42;;;14.48;;
58621;SDS011;44389;51.578;5.456;2023-06-24T02:58:20;17.77;;;14.32;;
58621;SDS011;44389;51.578;5.456;2023-06-24T03:00:46;16.40;;;14.23;;
58621;SDS011;44389;51.578;5.456;2023-06-24T03:03:14;18.25;;;13.70;;
58621;SDS011;44389;51.578;5.456;2023-06-24T03:05:40;17.70;;;13.80;;
58621;SDS011;44389;51.578;5.456;2023-06-24T03:08:09;15.75;;;13.48;;
58621;SDS011;44389;51.578;5.456;2023-06-24T03:10:36;17.17;;;13.43;;
58621;SDS011;44389;51.578;5.456;2023-06-24T03:13:02;17.05;;;13.80;;
58621;SDS011;44389;51.578;5.456;2023-06-24T03:15:27;16.73;;;13.98;;
58621;SDS011;44389;51.578;5.456;2023-06-24T03:17:53;18.42;;;13.68;;
58621;SDS011;44389;51.578;5.456;2023-06-24T03:20:19;20.02;;;15.07;;
58621;SDS011;44389;51.578;5.456;2023-06-24T03:22:45;17.15;;;13.98;;
58621;SDS011;44389;51.578;5.456;2023-06-24T03:25:11;19.70;;;14.60;;
58621;SDS011;44389;51.578;5.456;2023-06-24T03:27:36;18.52;;;14.45;;
58621;SDS011;44389;51.578;5.456;2023-06-24T03:30:02;20.63;;;15.90;;
58621;SDS011;44389;51.578;5.456;2023-06-24T03:32:27;19.25;;;15.60;;
58621;SDS011;44389;51.578;5.456;2023-06-24T03:34:53;20.98;;;15.57;;
58621;SDS011;44389;51.578;5.456;2023-06-24T03:37:18;20.85;;;16.15;;
58621;SDS011;44389;51.578;5.456;2023-06-24T03:39:43;20.95;;;16.73;;
58621;SDS011;44389;51.578;5.456;2023-06-24T03:42:09;20.10;;;14.48;;
58621;SDS011;44389;51.578;5.456;2023-06-24T03:44:34;19.58;;;13.80;;
58621;SDS011;44389;51.578;5.456;2023-06-24T03:46:59;17.80;;;14.38;;
58621;SDS011;44389;51.578;5.456;2023-06-24T03:49:25;19.55;;;15.82;;
58621;SDS011;44389;51.578;5.456;2023-06-24T03:51:50;24.65;;;19.33;;
58621;SDS011;44389;51.578;5.456;2023-06-24T03:54:15;22.63;;;17.35;;
58621;SDS011;44389;51.578;5.456;2023-06-24T03:56:40;21.48;;;18.02;;
58621;SDS011;44389;51.578;5.456;2023-06-24T03:59:06;23.15;;;17.83;;
58621;SDS011;44389;51.578;5.456;2023-06-24T04:01:32;20.48;;;17.83;;
58621;SDS011;44389;51.578;5.456;2023-06-24T04:03:58;23.88;;;17.85;;
58621;SDS011;44389;51.578;5.456;2023-06-24T04:06:23;20.85;;;17.20;;
58621;SDS011;44389;51.578;5.456;2023-06-24T04:08:49;23.05;;;17.60;;
58621;SDS011;44389;51.578;5.456;2023-06-24T04:11:17;21.20;;;17.30;;
58621;SDS011;44389;51.578;5.456;2023-06-24T04:13:43;28.83;;;19.20;;
58621;SDS011;44389;51.578;5.456;2023-06-24T04:16:10;21.33;;;18.40;;
58621;SDS011;44389;51.578;5.456;2023-06-24T04:18:35;24.13;;;17.70;;
58621;SDS011;44389;51.578;5.456;2023-06-24T04:21:04;21.13;;;17.70;;
58621;SDS011;44389;51.578;5.456;2023-06-24T04:23:31;23.27;;;17.88;;
58621;SDS011;44389;51.578;5.456;2023-06-24T04:25:56;18.60;;;16.58;;
58621;SDS011;44389;51.578;5.456;2023-06-24T04:28:24;22.20;;;16.70;;
58621;SDS011;44389;51.578;5.456;2023-06-24T04:30:50;20.55;;;17.75;;
58621;SDS011;44389;51.578;5.456;2023-06-24T04:33:16;22.70;;;19.10;;
58621;SDS011;44389;51.578;5.456;2023-06-24T04:35:41;24.42;;;19.17;;
58621;SDS011;44389;51.578;5.456;2023-06-24T04:38:08;23.35;;;18.40;;
58621;SDS011;44389;51.578;5.456;2023-06-24T04:40:33;25.48;;;19.50;;
58621;SDS011;44389;51.578;5.456;2023-06-24T04:42:59;22.80;;;18.63;;
58621;SDS011;44389;51.578;5.456;2023-06-24T04:45:24;22.75;;;17.73;;
58621;SDS011;44389;51.578;5.456;2023-06-24T04:47:50;20.92;;;17.80;;
58621;SDS011;44389;51.578;5.456;2023-06-24T04:50:16;25.73;;;18.23;;
58621;SDS011;44389;51.578;5.456;2023-06-24T04:52:41;28.00;;;18.27;;
58621;SDS011;44389;51.578;5.456;2023-06-24T04:55:07;24.20;;;18.92;;
58621;SDS011;44389;51.578;5.456;2023-06-24T04:57:32;24.35;;;19.20;;
58621;SDS011;44389;51.578;5.456;2023-06-24T04:59:59;21.20;;;18.00;;
58621;SDS011;44389;51.578;5.456;2023-06-24T05:02:25;24.30;;;17.50;;
58621;SDS011;44389;51.578;5.456;2023-06-24T05:04:51;24.80;;;17.88;;
58621;SDS011;44389;51.578;5.456;2023-06-24T05:07:17;24.95;;;19.35;;
58621;SDS011;44389;51.578;5.456;2023-06-24T05:09:42;24.85;;;18.85;;
58621;SDS011;44389;51.578;5.456;2023-06-24T05:12:08;24.25;;;18.85;;
58621;SDS011;44389;51.578;5.456;2023-06-24T05:14:35;27.02;;;19.20;;
58621;SDS011;44389;51.578;5.456;2023-06-24T05:17:01;25.95;;;18.75;;
58621;SDS011;44389;51.578;5.456;2023-06-24T05:19:28;27.08;;;19.17;;
58621;SDS011;44389;51.578;5.456;2023-06-24T05:21:53;28.52;;;18.70;;
58621;SDS011;44389;51.578;5.456;2023-06-24T05:24:18;28.58;;;20.42;;
58621;SDS011;44389;51.578;5.456;2023-06-24T05:26:50;28.38;;;20.27;;
58621;SDS011;44389;51.578;5.456;2023-06-24T05:29:16;26.38;;;19.42;;
58621;SDS011;44389;51.578;5.456;2023-06-24T05:31:42;29.02;;;19.75;;
58621;SDS011;44389;51.578;5.456;2023-06-24T05:34:08;23.67;;;18.35;;
58621;SDS011;44389;51.578;5.456;2023-06-24T05:36:33;27.75;;;19.50;;
58621;SDS011;44389;51.578;5.456;2023-06-24T05:38:59;23.58;;;18.08;;
58621;SDS011;44389;51.578;5.456;2023-06-24T05:41:24;28.05;;;19.88;;
58621;SDS011;44389;51.578;5.456;2023-06-24T05:44:00;27.63;;;19.33;;
58621;SDS011;44389;51.578;5.456;2023-06-24T05:46:30;27.65;;;18.52;;
58621;SDS011;44389;51.578;5.456;2023-06-24T05:48:55;23.25;;;17.92;;
58621;SDS011;44389;51.578;5.456;2023-06-24T05:51:20;26.98;;;18.00;;
58621;SDS011;44389;51.578;5.456;2023-06-24T05:53:46;26.63;;;18.83;;
58621;SDS011;44389;51.578;5.456;2023-06-24T05:56:11;22.98;;;17.98;;
58621;SDS011;44389;51.578;5.456;2023-06-24T05:58:36;23.13;;;18.65;;
58621;SDS011;44389;51.578;5.456;2023-06-24T06:01:02;23.77;;;18.23;;
58621;SDS011;44389;51.578;5.456;2023-06-24T06:03:27;23.63;;;17.80;;
58621;SDS011;44389;51.578;5.456;2023-06-24T06:05:53;22.48;;;16.77;;
58621;SDS011;44389;51.578;5.456;2023-06-24T06:08:18;23.73;;;17.50;;
58621;SDS011;44389;51.578;5.456;2023-06-24T06:10:43;27.08;;;18.73;;
58621;SDS011;44389;51.578;5.456;2023-06-24T06:13:08;21.17;;;17.55;;
58621;SDS011;44389;51.578;5.456;2023-06-24T06:15:34;22.08;;;17.83;;
58621;SDS011;44389;51.578;5.456;2023-06-24T06:17:59;23.35;;;17.67;;
58621;SDS011;44389;51.578;5.456;2023-06-24T06:20:24;22.02;;;15.75;;
58621;SDS011;44389;51.578;5.456;2023-06-24T06:22:50;22.77;;;15.75;;
58621;SDS011;44389;51.578;5.456;2023-06-24T06:25:16;20.45;;;15.30;;
58621;SDS011;44389;51.578;5.456;2023-06-24T06:27:41;17.60;;;13.77;;
58621;SDS011;44389;51.578;5.456;2023-06-24T06:30:07;22.00;;;15.95;;
58621;SDS011;44389;51.578;5.456;2023-06-24T06:32:32;21.60;;;15.63;;
58621;SDS011;44389;51.578;5.456;2023-06-24T06:34:58;20.83;;;15.85;;
58621;SDS011;44389;51.578;5.456;2023-06-24T06:37:23;22.48;;;14.88;;
58621;SDS011;44389;51.578;5.456;2023-06-24T06:39:48;20.33;;;15.45;;
58621;SDS011;44389;51.578;5.456;2023-06-24T06:42:15;23.70;;;15.75;;
58621;SDS011;44389;51.578;5.456;2023-06-24T06:44:40;20.63;;;15.13;;
58621;SDS011;44389;51.578;5.456;2023-06-24T06:47:06;24.05;;;15.80;;
58621;SDS011;44389;51.578;5.456;2023-06-24T06:49:31;20.48;;;14.52;;
58621;SDS011;44389;51.578;5.456;2023-06-24T06:51:57;20.60;;;13.80;;
58621;SDS011;44389;51.578;5.456;2023-06-24T06:54:22;18.65;;;13.80;;
58621;SDS011;44389;51.578;5.456;2023-06-24T06:56:47;23.23;;;13.73;;
58621;SDS011;44389;51.578;5.456;2023-06-24T06:59:12;17.50;;;12.05;;
58621;SDS011;44389;51.578;5.456;2023-06-24T07:01:38;17.33;;;12.32;;
58621;SDS011;44389;51.578;5.456;2023-06-24T07:04:03;16.33;;;11.63;;
58621;SDS011;44389;51.578;5.456;2023-06-24T07:06:29;17.70;;;10.55;;
58621;SDS011;44389;51.578;5.456;2023-06-24T07:08:57;15.00;;;10.55;;
58621;SDS011;44389;51.578;5.456;2023-06-24T07:11:22;14.10;;;10.32;;
58621;SDS011;44389;51.578;5.456;2023-06-24T07:13:48;14.43;;;9.73;;
58621;SDS011;44389;51.578;5.456;2023-06-24T07:16:15;12.48;;;9.27;;
58621;SDS011;44389;51.578;5.456;2023-06-24T07:18:41;14.15;;;10.15;;
58621;SDS011;44389;51.578;5.456;2023-06-24T07:21:06;14.50;;;10.32;;
58621;SDS011;44389;51.578;5.456;2023-06-24T07:23:32;13.60;;;9.60;;
58621;SDS011;44389;51.578;5.456;2023-06-24T07:25:57;14.90;;;10.23;;
58621;SDS011;44389;51.578;5.456;2023-06-24T07:28:22;15.57;;;11.32;;
58621;SDS011;44389;51.578;5.456;2023-06-24T07:30:47;16.60;;;10.45;;
58621;SDS011;44389;51.578;5.456;2023-06-24T07:33:13;14.38;;;10.15;;
58621;SDS011;44389;51.578;5.456;2023-06-24T07:35:38;14.75;;;9.88;;
58621;SDS011;44389;51.578;5.456;2023-06-24T07:38:04;14.65;;;9.60;;
58621;SDS011;44389;51.578;5.456;2023-06-24T07:40:29;14.57;;;9.80;;
58621;SDS011;44389;51.578;5.456;2023-06-24T07:42:54;14.10;;;9.68;;
58621;SDS011;44389;51.578;5.456;2023-06-24T07:45:20;14.20;;;9.73;;
58621;SDS011;44389;51.578;5.456;2023-06-24T07:47:45;13.25;;;9.68;;
58621;SDS011;44389;51.578;5.456;2023-06-24T07:50:11;12.82;;;8.35;;
58621;SDS011;44389;51.578;5.456;2023-06-24T07:52:37;11.57;;;8.10;;
58621;SDS011;44389;51.578;5.456;2023-06-24T07:55:03;12.25;;;8.50;;
58621;SDS011;44389;51.578;5.456;2023-06-24T07:57:29;11.80;;;7.95;;
58621;SDS011;44389;51.578;5.456;2023-06-24T07:59:55;10.77;;;7.32;;
58621;SDS011;44389;51.578;5.456;2023-06-24T08:02:20;12.32;;;7.72;;
58621;SDS011;44389;51.578;5.456;2023-06-24T08:04:46;10.63;;;7.70;;
58621;SDS011;44389;51.578;5.456;2023-06-24T08:07:11;10.68;;;7.57;;
58621;SDS011;44389;51.578;5.456;2023-06-24T08:09:36;11.20;;;7.95;;
58621;SDS011;44389;51.578;5.456;2023-06-24T08:12:02;13.65;;;9.18;;
58621;SDS011;44389;51.578;5.456;2023-06-24T08:14:28;14.30;;;9.05;;
58621;SDS011;44389;51.578;5.456;2023-06-24T08:16:53;13.02;;;9.35;;
58621;SDS011;44389;51.578;5.456;2023-06-24T08:19:19;13.35;;;7.60;;
58621;SDS011;44389;51.578;5.456;2023-06-24T08:21:44;14.02;;;7.55;;
58621;SDS011;44389;51.578;5.456;2023-06-24T08:24:09;10.05;;;6.57;;
58621;SDS011;44389;51.578;5.456;2023-06-24T08:26:35;10.65;;;6.38;;
58621;SDS011;44389;51.578;5.456;2023-06-24T08:29:00;11.07;;;5.20;;
58621;SDS011;44389;51.578;5.456;2023-06-24T08:31:25;8.38;;;5.07;;
58621;SDS011;44389;51.578;5.456;2023-06-24T08:33:53;7.35;;;3.80;;
58621;SDS011;44389;51.578;5.456;2023-06-24T08:36:21;8.60;;;3.63;;
58621;SDS011;44389;51.578;5.456;2023-06-24T08:38:47;8.38;;;4.05;;
58621;SDS011;44389;51.578;5.456;2023-06-24T08:41:12;9.50;;;3.97;;
58621;SDS011;44389;51.578;5.456;2023-06-24T08:43:38;8.60;;;3.92;;
58621;SDS011;44389;51.578;5.456;2023-06-24T08:46:04;5.90;;;3.17;;
58621;SDS011;44389;51.578;5.456;2023-06-24T08:48:30;6.95;;;3.63;;
58621;SDS011;44389;51.578;5.456;2023-06-24T08:50:56;7.13;;;2.92;;
58621;SDS011;44389;51.578;5.456;2023-06-24T08:53:23;6.45;;;3.50;;
58621;SDS011;44389;51.578;5.456;2023-06-24T08:55:52;5.85;;;3.45;;
58621;SDS011;44389;51.578;5.456;2023-06-24T09:00:44;6.30;;;3.43;;
58621;SDS011;44389;51.578;5.456;2023-06-24T09:03:09;8.15;;;3.83;;
58621;SDS011;44389;51.578;5.456;2023-06-24T09:05:35;7.13;;;3.40;;
58621;SDS011;44389;51.578;5.456;2023-06-24T09:08:00;6.93;;;3.35;;
58621;SDS011;44389;51.578;5.456;2023-06-24T09:10:32;5.35;;;3.30;;
58621;SDS011;44389;51.578;5.456;2023-06-24T09:13:02;9.30;;;4.03;;
58621;SDS011;44389;51.578;5.456;2023-06-24T09:15:34;7.38;;;4.05;;
58621;SDS011;44389;51.578;5.456;2023-06-24T09:18:01;7.07;;;3.28;;
58621;SDS011;44389;51.578;5.456;2023-06-24T09:20:28;7.80;;;3.70;;
58621;SDS011;44389;51.578;5.456;2023-06-24T09:22:59;6.03;;;3.30;;
58621;SDS011;44389;51.578;5.456;2023-06-24T09:25:25;6.10;;;3.47;;
58621;SDS011;44389;51.578;5.456;2023-06-24T09:27:50;7.05;;;4.07;;
58621;SDS011;44389;51.578;5.456;2023-06-24T09:30:20;9.43;;;4.80;;
58621;SDS011;44389;51.578;5.456;2023-06-24T09:32:47;8.48;;;3.85;;
58621;SDS011;44389;51.578;5.456;2023-06-24T09:35:13;8.65;;;4.28;;
58621;SDS011;44389;51.578;5.456;2023-06-24T09:37:39;7.25;;;3.92;;
58621;SDS011;44389;51.578;5.456;2023-06-24T09:40:05;7.75;;;4.30;;
58621;SDS011;44389;51.578;5.456;2023-06-24T09:42:33;7.28;;;3.72;;
58621;SDS011;44389;51.578;5.456;2023-06-24T09:44:59;8.30;;;4.03;;
58621;SDS011;44389;51.578;5.456;2023-06-24T09:47:29;6.65;;;3.25;;
58621;SDS011;44389;51.578;5.456;2023-06-24T09:49:55;11.88;;;4.32;;
58621;SDS011;44389;51.578;5.456;2023-06-24T09:52:20;7.95;;;4.32;;
58621;SDS011;44389;51.578;5.456;2023-06-24T09:54:48;8.57;;;4.15;;
58621;SDS011;44389;51.578;5.456;2023-06-24T09:57:16;10.98;;;5.03;;
58621;SDS011;44389;51.578;5.456;2023-06-24T09:59:50;7.38;;;3.50;;
58621;SDS011;44389;51.578;5.456;2023-06-24T10:02:16;5.18;;;3.10;;
58621;SDS011;44389;51.578;5.456;2023-06-24T10:04:43;5.85;;;3.47;;
58621;SDS011;44389;51.578;5.456;2023-06-24T10:07:11;8.65;;;3.92;;
58621;SDS011;44389;51.578;5.456;2023-06-24T10:09:38;6.30;;;3.15;;
58621;SDS011;44389;51.578;5.456;2023-06-24T10:12:03;6.43;;;4.10;;
58621;SDS011;44389;51.578;5.456;2023-06-24T10:14:29;8.35;;;5.38;;
58621;SDS011;44389;51.578;5.456;2023-06-24T10:17:04;24.20;;;6.45;;
58621;SDS011;44389;51.578;5.456;2023-06-24T10:19:30;8.15;;;3.97;;
58621;SDS011;44389;51.578;5.456;2023-06-24T10:22:03;7.25;;;4.53;;
58621;SDS011;44389;51.578;5.456;2023-06-24T10:24:33;9.75;;;4.15;;
58621;SDS011;44389;51.578;5.456;2023-06-24T10:27:03;23.67;;;5.50;;
58621;SDS011;44389;51.578;5.456;2023-06-24T10:29:41;45.22;;;5.93;;
58621;SDS011;44389;51.578;5.456;2023-06-24T10:32:10;12.43;;;4.45;;
58621;SDS011;44389;51.578;5.456;2023-06-24T10:34:42;8.85;;;4.38;;
58621;SDS011;44389;51.578;5.456;2023-06-24T10:37:19;11.20;;;5.13;;
58621;SDS011;44389;51.578;5.456;2023-06-24T10:39:46;11.70;;;4.90;;
58621;SDS011;44389;51.578;5.456;2023-06-24T10:44:58;9.18;;;4.40;;
58621;SDS011;44389;51.578;5.456;2023-06-24T10:47:26;8.20;;;4.90;;
58621;SDS011;44389;51.578;5.456;2023-06-24T10:52:19;6.33;;;4.03;;
58621;SDS011;44389;51.578;5.456;2023-06-24T10:54:46;6.43;;;4.10;;
58621;SDS011;44389;51.578;5.456;2023-06-24T10:57:12;14.23;;;4.37;;
58621;SDS011;44389;51.578;5.456;2023-06-24T10:59:41;7.23;;;4.37;;
58621;SDS011;44389;51.578;5.456;2023-06-24T11:02:13;8.95;;;4.53;;
58621;SDS011;44389;51.578;5.456;2023-06-24T11:04:43;9.35;;;4.68;;
58621;SDS011;44389;51.578;5.456;2023-06-24T11:07:08;6.95;;;3.97;;
58621;SDS011;44389;51.578;5.456;2023-06-24T11:09:34;6.50;;;3.73;;
58621;SDS011;44389;51.578;5.456;2023-06-24T11:12:01;9.07;;;4.10;;
58621;SDS011;44389;51.578;5.456;2023-06-24T11:14:27;6.82;;;4.05;;
58621;SDS011;44389;51.578;5.456;2023-06-24T11:16:53;6.03;;;3.57;;
58621;SDS011;44389;51.578;5.456;2023-06-24T11:19:18;6.60;;;4.30;;
58621;SDS011;44389;51.578;5.456;2023-06-24T11:21:43;8.53;;;4.43;;
58621;SDS011;44389;51.578;5.456;2023-06-24T11:24:09;7.43;;;3.80;;
58621;SDS011;44389;51.578;5.456;2023-06-24T11:26:36;8.68;;;4.40;;
58621;SDS011;44389;51.578;5.456;2023-06-24T11:29:09;11.80;;;4.85;;
58621;SDS011;44389;51.578;5.456;2023-06-24T11:31:35;9.98;;;5.03;;
58621;SDS011;44389;51.578;5.456;2023-06-24T11:34:00;11.40;;;4.90;;
58621;SDS011;44389;51.578;5.456;2023-06-24T11:36:26;8.77;;;5.20;;
58621;SDS011;44389;51.578;5.456;2023-06-24T11:38:51;8.67;;;4.47;;
58621;SDS011;44389;51.578;5.456;2023-06-24T11:41:16;7.63;;;5.03;;
58621;SDS011;44389;51.578;5.456;2023-06-24T11:43:46;12.52;;;5.35;;
58621;SDS011;44389;51.578;5.456;2023-06-24T11:46:27;9.87;;;5.73;;
58621;SDS011;44389;51.578;5.456;2023-06-24T11:49:03;9.63;;;5.43;;
58621;SDS011;44389;51.578;5.456;2023-06-24T11:51:30;10.25;;;4.72;;
58621;SDS011;44389;51.578;5.456;2023-06-24T11:53:58;9.70;;;4.90;;
58621;SDS011;44389;51.578;5.456;2023-06-24T11:56:40;10.10;;;4.75;;
58621;SDS011;44389;51.578;5.456;2023-06-24T11:59:15;10.63;;;4.90;;
58621;SDS011;44389;51.578;5.456;2023-06-24T12:01:54;9.75;;;5.38;;
58621;SDS011;44389;51.578;5.456;2023-06-24T12:04:27;11.80;;;5.80;;
58621;SDS011;44389;51.578;5.456;2023-06-24T12:06:54;10.23;;;5.45;;
58621;SDS011;44389;51.578;5.456;2023-06-24T12:09:19;8.70;;;4.77;;
58621;SDS011;44389;51.578;5.456;2023-06-24T12:11:45;8.07;;;4.77;;
58621;SDS011;44389;51.578;5.456;2023-06-24T12:14:10;9.97;;;5.17;;
58621;SDS011;44389;51.578;5.456;2023-06-24T12:16:36;10.13;;;5.10;;
58621;SDS011;44389;51.578;5.456;2023-06-24T12:19:03;11.75;;;4.50;;
58621;SDS011;44389;51.578;5.456;2023-06-24T12:21:28;10.33;;;4.90;;
58621;SDS011;44389;51.578;5.456;2023-06-24T12:23:53;9.27;;;4.90;;
58621;SDS011;44389;51.578;5.456;2023-06-24T12:26:18;11.70;;;5.37;;
58621;SDS011;44389;51.578;5.456;2023-06-24T12:28:44;11.13;;;5.77;;
58621;SDS011;44389;51.578;5.456;2023-06-24T12:31:09;10.23;;;5.33;;
58621;SDS011;44389;51.578;5.456;2023-06-24T12:33:36;9.00;;;4.78;;
58621;SDS011;44389;51.578;5.456;2023-06-24T12:36:01;10.83;;;5.70;;
58621;SDS011;44389;51.578;5.456;2023-06-24T12:38:27;10.97;;;5.43;;
58621;SDS011;44389;51.578;5.456;2023-06-24T12:40:52;10.67;;;5.50;;
58621;SDS011;44389;51.578;5.456;2023-06-24T12:43:17;10.97;;;4.63;;
58621;SDS011;44389;51.578;5.456;2023-06-24T12:45:43;10.60;;;6.10;;
58621;SDS011;44389;51.578;5.456;2023-06-24T12:48:09;10.75;;;5.60;;
58621;SDS011;44389;51.578;5.456;2023-06-24T12:53:00;12.87;;;5.53;;
58621;SDS011;44389;51.578;5.456;2023-06-24T12:55:26;10.20;;;5.47;;
58621;SDS011;44389;51.578;5.456;2023-06-24T12:57:51;9.43;;;5.30;;
58621;SDS011;44389;51.578;5.456;2023-06-24T13:00:18;11.23;;;5.70;;
58621;SDS011;44389;51.578;5.456;2023-06-24T13:02:45;11.07;;;5.75;;
58621;SDS011;44389;51.578;5.456;2023-06-24T13:05:11;12.47;;;5.53;;
58621;SDS011;44389;51.578;5.456;2023-06-24T13:07:36;8.10;;;5.33;;
58621;SDS011;44389;51.578;5.456;2023-06-24T13:10:01;9.10;;;5.10;;
58621;SDS011;44389;51.578;5.456;2023-06-24T13:12:27;13.20;;;6.40;;
58621;SDS011;44389;51.578;5.456;2023-06-24T13:14:53;11.83;;;6.17;;
58621;SDS011;44389;51.578;5.456;2023-06-24T13:17:18;8.50;;;5.23;;
58621;SDS011;44389;51.578;5.456;2023-06-24T13:19:43;12.97;;;5.73;;
58621;SDS011;44389;51.578;5.456;2023-06-24T13:22:09;12.87;;;5.97;;
58621;SDS011;44389;51.578;5.456;2023-06-24T13:24:34;11.50;;;5.70;;
58621;SDS011;44389;51.578;5.456;2023-06-24T13:26:59;11.10;;;5.80;;
58621;SDS011;44389;51.578;5.456;2023-06-24T13:29:25;11.40;;;6.43;;
58621;SDS011;44389;51.578;5.456;2023-06-24T13:31:50;13.30;;;6.20;;
58621;SDS011;44389;51.578;5.456;2023-06-24T13:34:15;12.67;;;6.10;;
58621;SDS011;44389;51.578;5.456;2023-06-24T13:36:40;13.40;;;6.23;;
58621;SDS011;44389;51.578;5.456;2023-06-24T13:39:07;21.30;;;6.47;;
58621;SDS011;44389;51.578;5.456;2023-06-24T13:41:34;11.75;;;6.70;;
58621;SDS011;44389;51.578;5.456;2023-06-24T13:44:00;157.10;;;17.52;;
58621;SDS011;44389;51.578;5.456;2023-06-24T13:46:27;27.33;;;6.68;;
58621;SDS011;44389;51.578;5.456;2023-06-24T13:48:53;12.02;;;5.55;;
58621;SDS011;44389;51.578;5.456;2023-06-24T13:51:18;11.73;;;5.57;;
58621;SDS011;44389;51.578;5.456;2023-06-24T13:53:45;10.75;;;5.40;;
58621;SDS011;44389;51.578;5.456;2023-06-24T13:56:10;13.53;;;6.10;;
58621;SDS011;44389;51.578;5.456;2023-06-24T13:58:36;10.43;;;5.80;;
58621;SDS011;44389;51.578;5.456;2023-06-24T14:01:01;11.53;;;6.27;;
58621;SDS011;44389;51.578;5.456;2023-06-24T14:03:26;11.07;;;5.23;;
58621;SDS011;44389;51.578;5.456;2023-06-24T14:05:52;15.27;;;6.43;;
58621;SDS011;44389;51.578;5.456;2023-06-24T14:08:17;12.80;;;6.27;;
58621;SDS011;44389;51.578;5.456;2023-06-24T14:10:42;15.70;;;6.80;;
58621;SDS011;44389;51.578;5.456;2023-06-24T14:13:08;12.43;;;6.00;;
58621;SDS011;44389;51.578;5.456;2023-06-24T14:15:33;13.03;;;6.10;;
58621;SDS011;44389;51.578;5.456;2023-06-24T14:17:58;11.37;;;6.90;;
58621;SDS011;44389;51.578;5.456;2023-06-24T14:20:23;11.93;;;6.23;;
58621;SDS011;44389;51.578;5.456;2023-06-24T14:22:50;11.75;;;7.03;;
58621;SDS011;44389;51.578;5.456;2023-06-24T14:25:16;18.20;;;6.35;;
58621;SDS011;44389;51.578;5.456;2023-06-24T14:27:41;10.83;;;6.13;;
58621;SDS011;44389;51.578;5.456;2023-06-24T14:30:07;10.37;;;6.20;;
58621;SDS011;44389;51.578;5.456;2023-06-24T14:32:33;11.45;;;5.78;;
58621;SDS011;44389;51.578;5.456;2023-06-24T14:34:58;13.43;;;6.00;;
58621;SDS011;44389;51.578;5.456;2023-06-24T14:37:23;12.70;;;5.53;;
58621;SDS011;44389;51.578;5.456;2023-06-24T14:39:49;12.07;;;6.30;;
58621;SDS011;44389;51.578;5.456;2023-06-24T14:42:14;9.77;;;5.37;;
58621;SDS011;44389;51.578;5.456;2023-06-24T14:44:39;15.67;;;6.63;;
58621;SDS011;44389;51.578;5.456;2023-06-24T14:47:05;17.33;;;7.17;;
58621;SDS011;44389;51.578;5.456;2023-06-24T14:49:30;23.30;;;6.30;;
58621;SDS011;44389;51.578;5.456;2023-06-24T14:51:55;12.37;;;6.07;;